Time;durP1;ratioP1;P1;durP2;ratioP2;P2;SDS_P1;SDS_P2;PMS_P1;PMS_P2;Temp;Humidity;BMP_temperature;BMP_pressure;BME280_temperature;BME280_humidity;BME280_pressure;Samples;Min_cycle;Max_cycle;Signal;HPM_P1;HPM_P2
2022/05/25 00:02:25;;;;;;;10.90;4.70;;;;;;;;;;4178263;34;20106;-68
2022/05/25 00:32:34;;;;;;;6.70;3.80;;;;;;;;;;4879386;28;20144;-66
2022/05/25 00:35:01;;;;;;;6.80;3.78;;;;;;;;;;4214089;34;20493;-67
2022/05/25 00:37:27;;;;;;;6.00;3.47;;;;;;;;;;4213134;34;20129;-69
2022/05/25 00:39:53;;;;;;;5.57;3.45;;;;;;;;;;4209782;34;20093;-69
2022/05/25 00:42:20;;;;;;;11.70;3.40;;;;;;;;;;4192530;34;20132;-64
2022/05/25 00:44:46;;;;;;;7.28;3.60;;;;;;;;;;4218363;34;20097;-69
2022/05/25 00:47:16;;;;;;;7.15;3.97;;;;;;;;;;4219638;34;20121;-69
2022/05/25 00:49:42;;;;;;;11.57;4.65;;;;;;;;;;4206531;34;20476;-63
2022/05/25 00:52:11;;;;;;;8.60;4.53;;;;;;;;;;4212872;34;20121;-63
2022/05/25 00:54:47;;;;;;;9.93;5.05;;;;;;;;;;4192679;34;20473;-63
2022/05/25 00:57:17;;;;;;;11.20;5.90;;;;;;;;;;4192669;34;20114;-69
2022/05/25 00:59:55;;;;;;;9.48;5.28;;;;;;;;;;4191884;34;20125;-67
2022/05/25 01:02:21;;;;;;;5.60;4.85;;;;;;;;;;4205289;34;20110;-69
2022/05/25 01:04:47;;;;;;;11.10;5.20;;;;;;;;;;4205198;34;20098;-69
2022/05/25 01:07:26;;;;;;;5.50;4.22;;;;;;;;;;4205375;34;20764;-69
2022/05/25 01:10:01;;;;;;;11.50;5.28;;;;;;;;;;4215582;34;20121;-69
2022/05/25 01:13:08;;;;;;;9.93;5.62;;;;;;;;;;4219299;34;20125;-70
2022/05/25 01:15:37;;;;;;;9.80;5.18;;;;;;;;;;4218815;34;20125;-69
2022/05/25 01:18:19;;;;;;;9.30;5.25;;;;;;;;;;4219149;34;20127;-68
2022/05/25 01:21:06;;;;;;;9.45;4.80;;;;;;;;;;4206242;34;20458;-68
2022/05/25 01:23:50;;;;;;;16.35;7.05;;;;;;;;;;4206358;34;20446;-69
2022/05/25 01:26:41;;;;;;;9.87;4.77;;;;;;;;;;4219034;34;20125;-68
2022/05/25 01:29:18;;;;;;;7.53;4.85;;;;;;;;;;4218778;34;20110;-67
2022/05/25 01:31:47;;;;;;;10.10;5.45;;;;;;;;;;4206433;34;20147;-67
2022/05/25 01:34:51;;;;;;;12.37;4.80;;;;;;;;;;4205918;34;20212;-68
2022/05/25 01:37:25;;;;;;;8.35;4.62;;;;;;;;;;4184680;34;20183;-69
2022/05/25 01:39:59;;;;;;;9.23;4.90;;;;;;;;;;4192397;34;20108;-69
2022/05/25 01:42:29;;;;;;;8.90;4.23;;;;;;;;;;4192094;34;20105;-69
2022/05/25 01:44:59;;;;;;;7.82;4.87;;;;;;;;;;4192146;34;20454;-69
2022/05/25 01:47:26;;;;;;;7.12;4.50;;;;;;;;;;4192074;34;20202;-70
2022/05/25 01:49:52;;;;;;;5.90;4.53;;;;;;;;;;4205126;34;20118;-70
2022/05/25 01:52:24;;;;;;;9.75;5.00;;;;;;;;;;4204834;34;20129;-67
2022/05/25 01:54:53;;;;;;;11.18;5.12;;;;;;;;;;4191855;34;20102;-69
2022/05/25 01:57:22;;;;;;;8.13;5.00;;;;;;;;;;4192170;34;20466;-69
2022/05/25 01:59:48;;;;;;;6.90;4.18;;;;;;;;;;4191842;34;20106;-69
2022/05/25 02:05:00;;;;;;;8.13;4.43;;;;;;;;;;4204701;34;20121;-68
2022/05/25 02:07:48;;;;;;;7.72;4.00;;;;;;;;;;4191895;34;20114;-69
2022/05/25 02:10:28;;;;;;;6.97;4.45;;;;;;;;;;4210505;34;20539;-69
2022/05/25 02:13:21;;;;;;;6.60;3.87;;;;;;;;;;4218549;34;20109;-69
2022/05/25 02:16:23;;;;;;;5.00;3.60;;;;;;;;;;4205861;34;20332;-69
2022/05/25 02:19:10;;;;;;;9.68;3.70;;;;;;;;;;4209175;34;20534;-68
2022/05/25 02:21:38;;;;;;;5.90;3.67;;;;;;;;;;4218823;34;20185;-69
2022/05/25 02:24:12;;;;;;;6.95;3.92;;;;;;;;;;4218731;34;20192;-68
2022/05/25 02:26:44;;;;;;;5.45;3.85;;;;;;;;;;4205670;34;20101;-68
2022/05/25 02:29:14;;;;;;;7.85;4.53;;;;;;;;;;4205602;34;20206;-68
2022/05/25 02:31:44;;;;;;;10.05;3.90;;;;;;;;;;4218403;34;20221;-68
2022/05/25 02:34:11;;;;;;;6.65;3.45;;;;;;;;;;4205546;34;20430;-68
2022/05/25 02:36:38;;;;;;;7.50;3.35;;;;;;;;;;4200743;34;20129;-69
2022/05/25 02:39:06;;;;;;;3.87;3.25;;;;;;;;;;4191999;34;20145;-69
2022/05/25 02:41:33;;;;;;;5.55;3.25;;;;;;;;;;4191927;34;20113;-69
2022/05/25 02:44:01;;;;;;;4.53;3.25;;;;;;;;;;4204500;34;20125;-70
2022/05/25 02:46:27;;;;;;;5.60;3.58;;;;;;;;;;4204374;34;20186;-68
2022/05/25 02:48:54;;;;;;;7.32;4.60;;;;;;;;;;4204422;34;20450;-69
2022/05/25 02:51:20;;;;;;;6.03;3.20;;;;;;;;;;4204295;34;20114;-67
2022/05/25 02:53:46;;;;;;;6.53;3.75;;;;;;;;;;4204164;34;20090;-68
2022/05/25 02:56:12;;;;;;;7.57;3.35;;;;;;;;;;4204252;34;20534;-68
2022/05/25 02:58:38;;;;;;;5.93;3.17;;;;;;;;;;4204347;34;20197;-68
2022/05/25 03:01:05;;;;;;;5.18;3.00;;;;;;;;;;4204023;34;20089;-68
2022/05/25 03:03:36;;;;;;;5.28;3.12;;;;;;;;;;4200120;34;20315;-68
2022/05/25 03:06:02;;;;;;;4.65;3.30;;;;;;;;;;4191105;34;20122;-68
2022/05/25 03:08:28;;;;;;;4.00;2.92;;;;;;;;;;4190323;34;20197;-69
2022/05/25 03:10:54;;;;;;;6.60;3.25;;;;;;;;;;4190286;34;20132;-68
2022/05/25 03:13:21;;;;;;;7.80;4.35;;;;;;;;;;4190313;34;20113;-67
2022/05/25 03:15:47;;;;;;;4.43;3.12;;;;;;;;;;4190256;34;20098;-68
2022/05/25 03:18:12;;;;;;;6.25;3.15;;;;;;;;;;4201445;34;20132;-68
2022/05/25 03:20:38;;;;;;;6.25;3.20;;;;;;;;;;4202996;34;20297;-70
2022/05/25 03:23:04;;;;;;;4.65;3.25;;;;;;;;;;4204372;34;20130;-68
2022/05/25 03:25:30;;;;;;;5.03;3.20;;;;;;;;;;4206936;34;20221;-69
2022/05/25 03:27:56;;;;;;;4.07;2.90;;;;;;;;;;4205165;34;20562;-68
2022/05/25 03:30:22;;;;;;;5.60;2.95;;;;;;;;;;4204870;34;20126;-69
2022/05/25 03:32:48;;;;;;;7.30;3.00;;;;;;;;;;4204782;34;20514;-69
2022/05/25 03:35:15;;;;;;;4.55;3.00;;;;;;;;;;4205154;34;20093;-70
2022/05/25 03:37:41;;;;;;;7.55;2.92;;;;;;;;;;4204825;34;20466;-69
2022/05/25 03:40:10;;;;;;;4.70;2.92;;;;;;;;;;4204819;34;20121;-71
2022/05/25 03:42:37;;;;;;;5.30;3.30;;;;;;;;;;4204675;34;20541;-71
2022/05/25 03:45:04;;;;;;;4.60;3.08;;;;;;;;;;4191749;34;20102;-67
2022/05/25 03:47:31;;;;;;;6.00;2.62;;;;;;;;;;4202523;34;20107;-68
2022/05/25 03:49:57;;;;;;;3.40;2.70;;;;;;;;;;4204700;34;20094;-69
2022/05/25 03:52:23;;;;;;;5.12;2.78;;;;;;;;;;4203891;34;20141;-68
2022/05/25 03:54:50;;;;;;;2.62;2.22;;;;;;;;;;4205340;34;20140;-68
2022/05/25 03:57:16;;;;;;;2.87;2.37;;;;;;;;;;4199023;34;20209;-68
2022/05/25 03:59:42;;;;;;;5.45;2.30;;;;;;;;;;4205544;34;20110;-68
2022/05/25 04:02:08;;;;;;;5.53;2.53;;;;;;;;;;4205345;34;20613;-68
2022/05/25 04:04:34;;;;;;;5.05;3.17;;;;;;;;;;4205613;34;20558;-67
2022/05/25 04:07:00;;;;;;;3.42;2.00;;;;;;;;;;4205918;34;20135;-67
2022/05/25 04:09:27;;;;;;;5.85;2.30;;;;;;;;;;4205415;34;20132;-68
2022/05/25 04:11:53;;;;;;;3.95;2.30;;;;;;;;;;4205487;34;20098;-69
2022/05/25 04:14:19;;;;;;;6.25;2.60;;;;;;;;;;4192605;34;20089;-69
2022/05/25 04:16:45;;;;;;;3.70;2.20;;;;;;;;;;4205262;34;20109;-69
2022/05/25 04:19:12;;;;;;;3.33;2.00;;;;;;;;;;4205193;34;20114;-69
2022/05/25 04:21:39;;;;;;;5.95;2.08;;;;;;;;;;4204202;34;20101;-67
2022/05/25 04:24:06;;;;;;;2.45;2.00;;;;;;;;;;4192498;34;20109;-68
2022/05/25 04:26:32;;;;;;;2.22;1.90;;;;;;;;;;4205576;34;20105;-69
2022/05/25 04:29:00;;;;;;;5.03;2.20;;;;;;;;;;4205424;34;20121;-71
2022/05/25 04:31:26;;;;;;;2.10;1.90;;;;;;;;;;4203624;34;20110;-69
2022/05/25 04:33:53;;;;;;;2.00;1.80;;;;;;;;;;4205080;34;20509;-69
2022/05/25 04:36:19;;;;;;;2.85;1.90;;;;;;;;;;4205372;34;20197;-69
2022/05/25 04:38:46;;;;;;;2.70;1.90;;;;;;;;;;4205627;34;20514;-69
2022/05/25 04:41:12;;;;;;;3.10;1.67;;;;;;;;;;4205403;34;20149;-68
2022/05/25 04:43:38;;;;;;;2.35;1.80;;;;;;;;;;4205445;34;20122;-69
2022/05/25 04:46:08;;;;;;;3.00;1.87;;;;;;;;;;4205383;34;20604;-68
2022/05/25 04:48:35;;;;;;;2.47;1.92;;;;;;;;;;4205455;34;20121;-68
2022/05/25 04:51:02;;;;;;;2.35;1.87;;;;;;;;;;4205354;34;20121;-69
2022/05/25 04:53:28;;;;;;;2.55;1.60;;;;;;;;;;4205488;34;20139;-71
2022/05/25 04:58:44;;;;;;;4.10;1.60;;;;;;;;;;4205501;34;20117;-66
2022/05/25 05:01:11;;;;;;;3.55;1.83;;;;;;;;;;4205527;34;20094;-68
2022/05/25 05:03:38;;;;;;;2.08;1.83;;;;;;;;;;4205382;34;20118;-69
2022/05/25 05:06:06;;;;;;;3.92;1.87;;;;;;;;;;4192615;34;20551;-67
2022/05/25 05:08:33;;;;;;;2.12;1.92;;;;;;;;;;4192575;34;20118;-67
2022/05/25 05:11:05;;;;;;;2.75;1.80;;;;;;;;;;4205164;34;20116;-70
2022/05/25 05:13:31;;;;;;;3.65;2.10;;;;;;;;;;4205515;34;20205;-68
2022/05/25 05:16:04;;;;;;;2.42;1.80;;;;;;;;;;4205425;34;20178;-67
2022/05/25 05:18:30;;;;;;;2.10;1.90;;;;;;;;;;4192392;34;20131;-64
2022/05/25 05:20:56;;;;;;;1.80;1.70;;;;;;;;;;4205317;34;20224;-67
2022/05/25 05:23:22;;;;;;;2.30;1.98;;;;;;;;;;4205295;34;20139;-68
2022/05/25 05:25:48;;;;;;;3.10;1.80;;;;;;;;;;4204973;34;20188;-69
2022/05/25 05:28:17;;;;;;;2.15;1.95;;;;;;;;;;4205134;34;20454;-72
2022/05/25 05:30:55;;;;;;;2.15;1.92;;;;;;;;;;4205068;34;20443;-69
2022/05/25 05:33:21;;;;;;;2.25;2.03;;;;;;;;;;4205236;34;20105;-72
2022/05/25 05:35:52;;;;;;;3.33;1.95;;;;;;;;;;4192133;34;20113;-68
2022/05/25 05:38:19;;;;;;;3.12;1.55;;;;;;;;;;4205292;34;20116;-69
2022/05/25 05:40:46;;;;;;;3.70;1.90;;;;;;;;;;4204932;34;20106;-68
2022/05/25 05:43:12;;;;;;;2.35;1.70;;;;;;;;;;4192344;34;20121;-67
2022/05/25 05:45:40;;;;;;;2.17;1.70;;;;;;;;;;4191560;34;20128;-65
2022/05/25 05:48:13;;;;;;;4.32;2.15;;;;;;;;;;4192046;34;20117;-66
2022/05/25 05:50:42;;;;;;;1.73;1.62;;;;;;;;;;4204953;34;20107;-66
2022/05/25 05:53:09;;;;;;;2.17;1.70;;;;;;;;;;4204825;34;20138;-65
2022/05/25 05:55:35;;;;;;;2.00;1.80;;;;;;;;;;4204939;34;20545;-65
2022/05/25 05:58:02;;;;;;;1.77;1.67;;;;;;;;;;4204980;34;20094;-64
2022/05/25 06:00:28;;;;;;;4.32;1.92;;;;;;;;;;4204836;34;20104;-65
2022/05/25 06:02:54;;;;;;;2.33;1.60;;;;;;;;;;4204682;34;20118;-67
2022/05/25 06:05:20;;;;;;;2.10;1.90;;;;;;;;;;4204733;34;20205;-65
2022/05/25 06:07:46;;;;;;;1.90;1.80;;;;;;;;;;4205012;34;20223;-66
2022/05/25 06:10:12;;;;;;;2.62;2.00;;;;;;;;;;4204774;34;20126;-66
2022/05/25 06:12:38;;;;;;;2.00;1.80;;;;;;;;;;4204576;34;20118;-66
2022/05/25 06:20:34;;;;;;;4.87;1.73;;;;;;;;;;4204999;34;19986;-66
2022/05/25 06:23:00;;;;;;;3.00;1.85;;;;;;;;;;4204752;34;20117;-65
2022/05/25 06:25:27;;;;;;;2.17;1.92;;;;;;;;;;4204979;34;20106;-65
2022/05/25 06:27:54;;;;;;;6.18;2.15;;;;;;;;;;4204521;34;20172;-66
2022/05/25 06:30:21;;;;;;;3.55;2.10;;;;;;;;;;4204716;34;20113;-65
2022/05/25 06:32:46;;;;;;;4.68;2.15;;;;;;;;;;4204611;34;20105;-66
2022/05/25 06:35:13;;;;;;;4.37;2.10;;;;;;;;;;4191783;34;20105;-66
2022/05/25 06:37:39;;;;;;;2.90;2.30;;;;;;;;;;4204371;34;20551;-66
2022/05/25 06:40:06;;;;;;;4.40;2.20;;;;;;;;;;4204574;34;20132;-63
2022/05/25 06:42:32;;;;;;;2.95;2.15;;;;;;;;;;4204426;34;20133;-67
2022/05/25 06:44:58;;;;;;;3.30;2.55;;;;;;;;;;4204375;34;20117;-67
2022/05/25 06:47:24;;;;;;;8.52;2.37;;;;;;;;;;4204532;34;20549;-67
2022/05/25 06:49:54;;;;;;;2.92;1.65;;;;;;;;;;4204388;34;20537;-64
2022/05/25 06:52:21;;;;;;;4.32;1.90;;;;;;;;;;4196732;34;20426;-64
2022/05/25 06:54:52;;;;;;;2.58;2.10;;;;;;;;;;4204379;34;20106;-67
2022/05/25 06:57:18;;;;;;;2.33;2.08;;;;;;;;;;4203405;34;20133;-64
2022/05/25 06:59:44;;;;;;;3.70;2.33;;;;;;;;;;4204454;34;20483;-63
2022/05/25 07:02:10;;;;;;;3.92;2.40;;;;;;;;;;4204549;34;20189;-64
2022/05/25 07:04:36;;;;;;;4.00;2.08;;;;;;;;;;4203523;34;20106;-64
2022/05/25 07:07:03;;;;;;;2.67;2.10;;;;;;;;;;4204212;34;20205;-65
2022/05/25 07:09:30;;;;;;;3.55;2.00;;;;;;;;;;4204113;34;20141;-65
2022/05/25 07:11:57;;;;;;;3.15;2.08;;;;;;;;;;4204205;34;20208;-65
2022/05/25 07:14:23;;;;;;;2.15;1.70;;;;;;;;;;4204309;34;20833;-65
2022/05/25 07:16:49;;;;;;;1.83;1.58;;;;;;;;;;4204116;34;20506;-65
2022/05/25 07:19:15;;;;;;;1.85;1.45;;;;;;;;;;4204204;34;20180;-64
2022/05/25 07:21:41;;;;;;;2.22;1.50;;;;;;;;;;4204026;34;20094;-63
2022/05/25 07:24:07;;;;;;;2.45;1.80;;;;;;;;;;4203862;34;20094;-65
2022/05/25 07:26:33;;;;;;;2.75;1.92;;;;;;;;;;4204107;34;20094;-65
2022/05/25 07:29:00;;;;;;;3.28;1.90;;;;;;;;;;4204032;34;20125;-65
2022/05/25 07:31:48;;;;;;;1.85;1.75;;;;;;;;;;4204156;34;20109;-65
2022/05/25 07:34:16;;;;;;;3.28;1.80;;;;;;;;;;4191329;34;20224;-64
2022/05/25 07:36:44;;;;;;;1.70;1.60;;;;;;;;;;4203843;34;20109;-63
2022/05/25 07:39:13;;;;;;;1.92;1.73;;;;;;;;;;4179781;34;20128;-63
2022/05/25 07:41:41;;;;;;;4.43;1.60;;;;;;;;;;4203900;34;20534;-64
2022/05/25 07:44:10;;;;;;;3.67;1.75;;;;;;;;;;4190676;34;20189;-63
2022/05/25 07:46:36;;;;;;;3.25;1.73;;;;;;;;;;4203852;34;20511;-63
2022/05/25 07:49:02;;;;;;;1.80;1.70;;;;;;;;;;4203900;34;20110;-64
2022/05/25 07:51:28;;;;;;;4.43;1.62;;;;;;;;;;4203818;34;20122;-64
2022/05/25 07:53:59;;;;;;;5.12;1.80;;;;;;;;;;4190955;34;20121;-64
2022/05/25 07:56:29;;;;;;;3.15;1.92;;;;;;;;;;4191288;34;20107;-62
2022/05/25 07:58:56;;;;;;;3.42;1.55;;;;;;;;;;4190929;34;20514;-64
2022/05/25 08:05:43;;;;;;;4.10;1.90;;;;;;;;;;4203839;34;20094;-63
2022/05/25 08:06:56;;;;;;;3.03;1.70;;;;;;;;;;4192871;34;20530;-63
2022/05/25 08:09:22;;;;;;;2.20;1.40;;;;;;;;;;4205842;34;20220;-62
2022/05/25 08:11:48;;;;;;;1.70;1.60;;;;;;;;;;4205991;34;20197;-63
2022/05/25 08:14:14;;;;;;;2.35;1.62;;;;;;;;;;4205543;34;20125;-63
2022/05/25 08:16:40;;;;;;;4.68;1.87;;;;;;;;;;4192896;34;20478;-62
2022/05/25 08:19:06;;;;;;;4.93;1.80;;;;;;;;;;4205569;34;20216;-64
2022/05/25 08:21:32;;;;;;;1.50;1.40;;;;;;;;;;4205816;34;20122;-63
2022/05/25 08:23:58;;;;;;;1.33;1.20;;;;;;;;;;4205893;34;20332;-62
2022/05/25 08:26:24;;;;;;;1.60;1.50;;;;;;;;;;4205616;34;20201;-63
2022/05/25 08:28:51;;;;;;;2.20;1.67;;;;;;;;;;4205637;34;20133;-63
2022/05/25 08:31:17;;;;;;;2.53;1.70;;;;;;;;;;4205505;34;20117;-63
2022/05/25 08:33:43;;;;;;;3.90;1.55;;;;;;;;;;4205487;34;20218;-63
2022/05/25 08:36:10;;;;;;;4.20;1.80;;;;;;;;;;4205469;34;20108;-63
2022/05/25 08:38:36;;;;;;;2.67;1.87;;;;;;;;;;4205604;34;20122;-63
2022/05/25 08:41:02;;;;;;;2.10;1.77;;;;;;;;;;4205727;34;20108;-62
2022/05/25 08:43:48;;;;;;;3.83;1.83;;;;;;;;;;4205405;34;20535;-64
2022/05/25 08:46:20;;;;;;;4.12;1.70;;;;;;;;;;4192912;34;20106;-66
2022/05/25 08:48:46;;;;;;;2.08;1.62;;;;;;;;;;4192538;34;20126;-64
2022/05/25 08:51:17;;;;;;;3.08;1.92;;;;;;;;;;4205615;34;20139;-64
2022/05/25 08:53:43;;;;;;;1.70;1.60;;;;;;;;;;4192702;34;20113;-65
2022/05/25 08:56:18;;;;;;;2.37;1.45;;;;;;;;;;4205362;34;20100;-63
2022/05/25 08:58:54;;;;;;;1.53;1.43;;;;;;;;;;4192582;34;20140;-63
2022/05/25 09:01:26;;;;;;;2.45;2.25;;;;;;;;;;4192727;34;20524;-64
2022/05/25 09:04:13;;;;;;;2.62;1.40;;;;;;;;;;4192472;34;20102;-64
2022/05/25 09:06:51;;;;;;;1.50;1.30;;;;;;;;;;4205616;34;20129;-64
2022/05/25 09:09:40;;;;;;;2.70;1.60;;;;;;;;;;4192604;34;20104;-62
2022/05/25 09:12:22;;;;;;;1.35;1.25;;;;;;;;;;4205334;34;20144;-63
2022/05/25 09:15:04;;;;;;;2.10;1.40;;;;;;;;;;4192466;34;20545;-63
2022/05/25 09:17:53;;;;;;;1.65;1.52;;;;;;;;;;4192258;34;20206;-63
2022/05/25 09:20:37;;;;;;;2.15;1.70;;;;;;;;;;4191722;34;20093;-63
2022/05/25 09:23:03;;;;;;;2.80;1.48;;;;;;;;;;4205154;34;20110;-62
2022/05/25 09:25:30;;;;;;;5.28;1.60;;;;;;;;;;4205050;34;20106;-65
2022/05/25 09:28:03;;;;;;;2.92;1.52;;;;;;;;;;4205085;34;20477;-61
2022/05/25 09:30:33;;;;;;;1.48;1.37;;;;;;;;;;4192506;34;20114;-64
2022/05/25 09:33:02;;;;;;;2.33;1.60;;;;;;;;;;4204865;34;20550;-64
2022/05/25 09:35:41;;;;;;;2.45;1.52;;;;;;;;;;4192387;34;20506;-63
2022/05/25 09:38:14;;;;;;;1.70;1.60;;;;;;;;;;4192085;34;20090;-64
2022/05/25 09:40:50;;;;;;;2.97;1.60;;;;;;;;;;4205045;34;20202;-63
2022/05/25 09:43:21;;;;;;;2.35;1.55;;;;;;;;;;4204933;34;20109;-63
2022/05/25 09:45:56;;;;;;;1.85;1.70;;;;;;;;;;4204888;34;20126;-63
2022/05/25 09:48:24;;;;;;;4.75;1.52;;;;;;;;;;4204816;34;20116;-65
2022/05/25 09:51:11;;;;;;;1.85;1.40;;;;;;;;;;4205264;34;20113;-63
2022/05/25 09:53:43;;;;;;;1.33;1.23;;;;;;;;;;4205026;34;20120;-66
2022/05/25 09:56:18;;;;;;;2.30;1.62;;;;;;;;;;4192191;34;20206;-63
2022/05/25 09:58:49;;;;;;;1.90;1.60;;;;;;;;;;4192244;34;20172;-62
2022/05/25 10:01:24;;;;;;;1.60;1.50;;;;;;;;;;4191946;34;20128;-61
2022/05/25 10:03:50;;;;;;;1.30;1.20;;;;;;;;;;4192086;34;20197;-62
2022/05/25 10:06:20;;;;;;;1.48;1.37;;;;;;;;;;4204906;34;20098;-65
2022/05/25 10:08:50;;;;;;;2.83;1.50;;;;;;;;;;4191866;34;20624;-64
2022/05/25 10:11:28;;;;;;;1.40;1.30;;;;;;;;;;4204812;34;20113;-64
2022/05/25 10:13:55;;;;;;;2.08;1.35;;;;;;;;;;4204597;34;20133;-63
2022/05/25 10:16:23;;;;;;;1.45;1.35;;;;;;;;;;4204775;34;20094;-64
2022/05/25 10:18:49;;;;;;;1.42;1.35;;;;;;;;;;4191859;34;20113;-64
2022/05/25 10:21:30;;;;;;;1.50;1.40;;;;;;;;;;4204943;34;20196;-64
2022/05/25 10:23:57;;;;;;;1.75;1.40;;;;;;;;;;4191727;34;20190;-63
2022/05/25 10:26:38;;;;;;;1.10;1.10;;;;;;;;;;4201779;34;20118;-63
2022/05/25 10:29:10;;;;;;;1.35;1.25;;;;;;;;;;4204287;34;20121;-62
2022/05/25 10:37:40;;;;;;;1.23;1.20;;;;;;;;;;4203818;34;20169;-62
2022/05/25 10:40:08;;;;;;;1.60;1.20;;;;;;;;;;4204124;34;20211;-63
2022/05/25 10:42:44;;;;;;;1.30;1.30;;;;;;;;;;4204177;34;20490;-63
2022/05/25 10:45:19;;;;;;;2.65;2.45;;;;;;;;;;4203927;34;20119;-62
2022/05/25 10:47:57;;;;;;;2.00;1.20;;;;;;;;;;4204136;34;20220;-64
2022/05/25 10:50:27;;;;;;;1.20;1.20;;;;;;;;;;4204178;34;20113;-63
2022/05/25 10:53:10;;;;;;;1.70;1.60;;;;;;;;;;4204255;34;20173;-63
2022/05/25 10:55:51;;;;;;;2.12;1.70;;;;;;;;;;4204494;34;20559;-64
2022/05/25 10:58:28;;;;;;;4.37;1.60;;;;;;;;;;4202468;34;20125;-63
2022/05/25 11:01:13;;;;;;;1.90;1.55;;;;;;;;;;4202651;34;20114;-64
2022/05/25 11:03:51;;;;;;;1.27;1.20;;;;;;;;;;4202545;34;20110;-63
2022/05/25 11:06:46;;;;;;;1.62;1.52;;;;;;;;;;4203316;34;20649;-68
2022/05/25 11:09:24;;;;;;;1.60;1.50;;;;;;;;;;4181363;34;20434;-64
2022/05/25 11:11:53;;;;;;;1.80;1.58;;;;;;;;;;4203612;34;20125;-64
2022/05/25 11:14:32;;;;;;;1.60;1.50;;;;;;;;;;4204212;34;20450;-63
2022/05/25 11:17:14;;;;;;;1.60;1.50;;;;;;;;;;4203344;34;20121;-63
2022/05/25 11:19:54;;;;;;;2.12;1.40;;;;;;;;;;4190351;34;20101;-63
2022/05/25 11:22:35;;;;;;;1.60;1.50;;;;;;;;;;4190302;34;20098;-64
2022/05/25 11:25:25;;;;;;;2.62;1.70;;;;;;;;;;4204242;34;20122;-64
2022/05/25 11:27:57;;;;;;;2.20;1.70;;;;;;;;;;4203832;34;20557;-63
2022/05/25 11:30:45;;;;;;;2.10;1.67;;;;;;;;;;4204246;34;20125;-64
2022/05/25 11:33:42;;;;;;;4.28;1.73;;;;;;;;;;4203898;34;20128;-64
2022/05/25 11:36:38;;;;;;;1.90;1.67;;;;;;;;;;4191183;34;20125;-65
2022/05/25 11:39:10;;;;;;;;;;;;;;;;;;4194678;34;20121;-62
2022/05/25 11:41:42;;;;;;;1.55;1.45;;;;;;;;;;4203928;34;20000;-63
2022/05/25 11:44:25;;;;;;;2.20;1.60;;;;;;;;;;4205594;34;20117;-64
2022/05/25 11:46:51;;;;;;;1.77;1.67;;;;;;;;;;4193113;34;20618;-65
2022/05/25 11:49:40;;;;;;;2.78;1.90;;;;;;;;;;4205914;34;20090;-62
2022/05/25 11:52:05;;;;;;;1.65;1.55;;;;;;;;;;4193455;34;20113;-62
2022/05/25 11:54:40;;;;;;;2.12;1.77;;;;;;;;;;4206109;34;20101;-64
2022/05/25 11:57:28;;;;;;;1.77;1.62;;;;;;;;;;4206045;34;20113;-64
2022/05/25 12:00:28;;;;;;;3.08;2.03;;;;;;;;;;4206177;34;20622;-64
2022/05/25 12:03:21;;;;;;;2.67;1.70;;;;;;;;;;4206087;34;20113;-64
2022/05/25 12:06:08;;;;;;;1.92;1.73;;;;;;;;;;4205734;34;20197;-64
2022/05/25 12:09:07;;;;;;;2.70;1.55;;;;;;;;;;4193018;34;20117;-64
2022/05/25 12:11:48;;;;;;;1.30;1.30;;;;;;;;;;4206081;34;20202;-64
2022/05/25 12:14:34;;;;;;;1.60;1.50;;;;;;;;;;4205893;34;20212;-63
2022/05/25 12:17:15;;;;;;;1.40;1.30;;;;;;;;;;4206031;34;20197;-64
2022/05/25 12:19:42;;;;;;;2.78;1.40;;;;;;;;;;4192902;34;20211;-64
2022/05/25 12:22:11;;;;;;;1.58;1.48;;;;;;;;;;4192840;34;20125;-64
2022/05/25 12:24:39;;;;;;;1.83;1.30;;;;;;;;;;4193136;34;20182;-63
2022/05/25 12:27:10;;;;;;;3.95;1.55;;;;;;;;;;4205637;34;20118;-63
2022/05/25 12:29:42;;;;;;;2.55;1.50;;;;;;;;;;4205481;34;20105;-64
2022/05/25 12:32:09;;;;;;;2.95;1.50;;;;;;;;;;4192918;34;20188;-64
2022/05/25 12:34:53;;;;;;;2.35;1.50;;;;;;;;;;4193064;34;20237;-63
2022/05/25 12:37:28;;;;;;;2.85;1.52;;;;;;;;;;4205372;34;20105;-63
2022/05/25 12:40:07;;;;;;;1.90;1.50;;;;;;;;;;4192849;34;20110;-64
2022/05/25 12:42:34;;;;;;;3.60;1.40;;;;;;;;;;4205418;34;20110;-63
2022/05/25 12:51:18;;;;;;;3.47;1.87;;;;;;;;;;4205439;34;20549;-66
2022/05/25 12:53:47;;;;;;;3.05;1.80;;;;;;;;;;4204803;34;20208;-70
2022/05/25 12:56:17;;;;;;;2.15;1.95;;;;;;;;;;4205094;34;20590;-65
2022/05/25 12:58:54;;;;;;;3.47;1.70;;;;;;;;;;4192863;34;20128;-66
2022/05/25 13:01:26;;;;;;;2.30;1.48;;;;;;;;;;4205571;34;20094;-65
2022/05/25 13:03:55;;;;;;;2.58;1.70;;;;;;;;;;4205668;34;20100;-66
2022/05/25 13:06:23;;;;;;;1.87;1.50;;;;;;;;;;4205348;34;20093;-66
2022/05/25 13:08:55;;;;;;;2.87;1.80;;;;;;;;;;4203207;34;20114;-66
2022/05/25 13:11:51;;;;;;;2.10;1.80;;;;;;;;;;4205115;34;20110;-66
2022/05/25 13:14:17;;;;;;;2.62;1.50;;;;;;;;;;4204828;34;20531;-64
2022/05/25 13:16:48;;;;;;;3.50;1.75;;;;;;;;;;4205183;34;20197;-67
2022/05/25 13:19:21;;;;;;;2.55;1.67;;;;;;;;;;4204862;34;20784;-65
2022/05/25 13:21:57;;;;;;;3.80;1.73;;;;;;;;;;4204746;34;20503;-65
2022/05/25 13:24:29;;;;;;;1.65;1.52;;;;;;;;;;4204736;34;20120;-66
2022/05/25 13:27:14;;;;;;;4.18;1.83;;;;;;;;;;4205043;34;20094;-65
2022/05/25 13:29:48;;;;;;;5.70;1.90;;;;;;;;;;4205030;34;20511;-66
2022/05/25 13:32:45;;;;;;;3.80;1.60;;;;;;;;;;4204845;34;20104;-65
2022/05/25 13:35:30;;;;;;;1.73;1.60;;;;;;;;;;4204779;34;20113;-65
2022/05/25 13:38:03;;;;;;;2.97;2.20;;;;;;;;;;4192169;34;20090;-66
2022/05/25 13:40:41;;;;;;;1.58;1.30;;;;;;;;;;4204915;34;20550;-66
2022/05/25 13:43:21;;;;;;;2.40;1.50;;;;;;;;;;4204618;34;20522;-64
2022/05/25 13:45:48;;;;;;;2.58;1.60;;;;;;;;;;4204487;34;20495;-65
2022/05/25 13:48:18;;;;;;;2.22;1.70;;;;;;;;;;4204616;34;20121;-64
2022/05/25 13:50:47;;;;;;;2.10;1.90;;;;;;;;;;4204910;34;20213;-65
2022/05/25 13:53:32;;;;;;;3.12;1.70;;;;;;;;;;4204843;34;20514;-66
2022/05/25 13:56:01;;;;;;;4.62;1.80;;;;;;;;;;4204743;34;20302;-67
2022/05/25 13:58:28;;;;;;;1.67;1.58;;;;;;;;;;4204986;34;20102;-65
2022/05/25 14:00:54;;;;;;;4.43;1.98;;;;;;;;;;4192152;34;20287;-64
2022/05/25 14:03:24;;;;;;;2.30;1.62;;;;;;;;;;4204923;34;20610;-64
2022/05/25 14:05:59;;;;;;;1.73;1.55;;;;;;;;;;4191532;34;20442;-65
2022/05/25 14:11:37;;;;;;;1.85;1.75;;;;;;;;;;4193766;34;20094;-65
2022/05/25 14:14:33;;;;;;;5.03;2.00;;;;;;;;;;4204900;34;20126;-66
2022/05/25 14:17:03;;;;;;;2.78;1.80;;;;;;;;;;4203856;34;20129;-64
2022/05/25 14:19:50;;;;;;;2.17;1.92;;;;;;;;;;4204637;34;20189;-65
2022/05/25 14:22:18;;;;;;;2.37;1.83;;;;;;;;;;4191825;34;20473;-65
2022/05/25 14:24:52;;;;;;;3.15;1.80;;;;;;;;;;4204339;34;20121;-65
2022/05/25 14:27:32;;;;;;;4.15;1.50;;;;;;;;;;4202707;34;20113;-66
2022/05/25 14:30:04;;;;;;;3.17;1.55;;;;;;;;;;4199033;34;20628;-68
2022/05/25 14:32:32;;;;;;;2.17;1.80;;;;;;;;;;4198410;34;20494;-65
2022/05/25 14:35:05;;;;;;;1.60;1.50;;;;;;;;;;4208066;34;20117;-66
2022/05/25 14:37:33;;;;;;;1.70;1.60;;;;;;;;;;4191712;34;20094;-64
2022/05/25 14:40:03;;;;;;;1.60;1.50;;;;;;;;;;4191854;34;20117;-66
2022/05/25 14:42:29;;;;;;;3.92;1.60;;;;;;;;;;4200619;34;20486;-65
2022/05/25 14:45:03;;;;;;;2.37;1.80;;;;;;;;;;4200090;34;20209;-66
2022/05/25 14:47:47;;;;;;;2.40;1.60;;;;;;;;;;4208632;34;20274;-66
2022/05/25 14:50:22;;;;;;;2.20;1.77;;;;;;;;;;4193336;34;20118;-66
2022/05/25 14:53:24;;;;;;;1.87;1.75;;;;;;;;;;4203912;34;20113;-66
2022/05/25 14:55:58;;;;;;;2.60;1.83;;;;;;;;;;4177800;34;20133;-68
2022/05/25 14:58:24;;;;;;;3.87;1.90;;;;;;;;;;4196444;34;20253;-66
2022/05/25 15:01:14;;;;;;;2.33;1.70;;;;;;;;;;4208964;34;20121;-66
2022/05/25 15:03:59;;;;;;;2.78;1.90;;;;;;;;;;4195543;34;20214;-67
2022/05/25 15:06:25;;;;;;;;;;;;;;;;;;4210628;34;20117;-67
2022/05/25 15:08:51;;;;;;;1.95;1.75;;;;;;;;;;4209323;34;20412;-66
2022/05/25 15:11:45;;;;;;;2.67;2.10;;;;;;;;;;4207346;34;20593;-66
2022/05/25 15:20:21;;;;;;;5.18;2.30;;;;;;;;;;4208023;34;20133;-65
2022/05/25 15:23:00;;;;;;;2.87;2.25;;;;;;;;;;4209054;34;20090;-66
2022/05/25 15:26:08;;;;;;;3.40;2.20;;;;;;;;;;4199724;34;20130;-68
2022/05/25 15:28:34;;;;;;;3.87;1.95;;;;;;;;;;4174671;34;20661;-66
2022/05/25 15:31:02;;;;;;;4.70;2.10;;;;;;;;;;4189538;34;20095;-68
2022/05/25 15:33:32;;;;;;;3.33;1.95;;;;;;;;;;4189394;34;20522;-67
2022/05/25 15:36:10;;;;;;;2.00;1.58;;;;;;;;;;4200811;34;20085;-66
2022/05/25 15:38:37;;;;;;;1.58;1.35;;;;;;;;;;4193209;34;20118;-66
2022/05/25 15:41:03;;;;;;;2.28;1.55;;;;;;;;;;4198739;34;20133;-67
2022/05/25 15:43:29;;;;;;;2.58;2.05;;;;;;;;;;4198903;34;20140;-68
2022/05/25 15:45:58;;;;;;;1.60;1.50;;;;;;;;;;4199063;34;20172;-65
2022/05/25 15:48:25;;;;;;;5.00;2.00;;;;;;;;;;4199008;34;20125;-67
2022/05/25 15:50:52;;;;;;;2.20;1.90;;;;;;;;;;4199175;34;20966;-66
2022/05/25 15:53:22;;;;;;;2.95;1.77;;;;;;;;;;4199242;34;20957;-65
2022/05/25 15:55:48;;;;;;;3.28;1.80;;;;;;;;;;4199118;34;20126;-68
2022/05/25 15:58:15;;;;;;;11.15;2.10;;;;;;;;;;4200493;34;20202;-67
2022/05/25 16:00:45;;;;;;;4.72;2.00;;;;;;;;;;4201863;34;20117;-64
2022/05/25 16:03:44;;;;;;;1.42;1.33;;;;;;;;;;4194737;34;20110;-64
2022/05/25 16:06:12;;;;;;;2.03;1.60;;;;;;;;;;4185349;34;20118;-66
2022/05/25 16:11:24;;;;;;;3.70;1.77;;;;;;;;;;4201207;34;20078;-64
2022/05/25 16:13:50;;;;;;;3.35;1.80;;;;;;;;;;4201871;34;20463;-65
2022/05/25 16:16:17;;;;;;;5.10;3.10;;;;;;;;;;4202490;34;20124;-65
2022/05/25 16:18:43;;;;;;;6.32;3.30;;;;;;;;;;4202819;34;20222;-65